Blaisdell, North Dakota
Current Conditions -  °F | °C
As of 10:18 AM on Thursday 30 Oct 2014 (Local Time) from KMIB Reporting Station
Overcast Overcast  
Wind Chill: 24°   Ceiling: 1800
Heat Index: 32°   Visibility: 10mi
Dew Point: 32°   Wind: 10mph
Humidity: 100%   Direction: 350°N
Pressure: 30.36"   Gusts: NA
Location:  48.3281°N, 101.856°W
Report Text: KMIB 301518Z AUTO 35009KT 10SM SCT010 OVC018 00/00 A3036 RMK AO2 CIG 010V019 CIG 009 RWY11 $
Loading
Personal Weather Stations






























Interactive Weather Map
Tropical Storm Tracking
New forecast layout! Learn more

10-Day Weather Forecast

Advertisements
Track Severe Weather on mobile